sensor_id;sensor_type;location;lat;lon;timestamp;P1;durP1;ratioP1;P2;durP2;ratioP2
82722;SDS011;72450;42.008;21.356;2023-09-19T00:02:18;17.15;;;10.13;;
82722;SDS011;72450;42.008;21.356;2023-09-19T00:04:44;14.70;;;10.10;;
82722;SDS011;72450;42.008;21.356;2023-09-19T00:07:10;13.93;;;10.35;;
82722;SDS011;72450;42.008;21.356;2023-09-19T00:09:36;15.80;;;10.65;;
82722;SDS011;72450;42.008;21.356;2023-09-19T00:12:04;13.98;;;10.10;;
82722;SDS011;72450;42.008;21.356;2023-09-19T00:14:30;14.20;;;9.93;;
82722;SDS011;72450;42.008;21.356;2023-09-19T00:16:59;13.52;;;10.25;;
82722;SDS011;72450;42.008;21.356;2023-09-19T00:19:25;18.55;;;10.18;;
82722;SDS011;72450;42.008;21.356;2023-09-19T00:21:51;17.17;;;10.35;;
82722;SDS011;72450;42.008;21.356;2023-09-19T00:24:18;13.88;;;10.18;;
82722;SDS011;72450;42.008;21.356;2023-09-19T00:26:44;17.33;;;10.45;;
82722;SDS011;72450;42.008;21.356;2023-09-19T00:29:12;16.33;;;10.20;;
82722;SDS011;72450;42.008;21.356;2023-09-19T00:31:43;20.02;;;10.75;;
82722;SDS011;72450;42.008;21.356;2023-09-19T00:34:09;14.73;;;11.07;;
82722;SDS011;72450;42.008;21.356;2023-09-19T00:36:36;14.95;;;9.82;;
82722;SDS011;72450;42.008;21.356;2023-09-19T00:39:04;13.02;;;9.15;;
82722;SDS011;72450;42.008;21.356;2023-09-19T00:41:31;14.55;;;10.68;;
82722;SDS011;72450;42.008;21.356;2023-09-19T00:43:57;14.68;;;9.57;;
82722;SDS011;72450;42.008;21.356;2023-09-19T00:46:25;16.83;;;10.60;;
82722;SDS011;72450;42.008;21.356;2023-09-19T00:48:51;19.42;;;10.88;;
82722;SDS011;72450;42.008;21.356;2023-09-19T00:51:17;16.85;;;10.05;;
82722;SDS011;72450;42.008;21.356;2023-09-19T00:53:45;13.73;;;11.65;;
82722;SDS011;72450;42.008;21.356;2023-09-19T00:56:12;15.93;;;10.02;;
82722;SDS011;72450;42.008;21.356;2023-09-19T00:58:38;15.38;;;10.20;;
82722;SDS011;72450;42.008;21.356;2023-09-19T01:01:05;14.73;;;10.43;;
82722;SDS011;72450;42.008;21.356;2023-09-19T01:03:32;16.17;;;10.43;;
82722;SDS011;72450;42.008;21.356;2023-09-19T01:06:01;14.43;;;10.30;;
82722;SDS011;72450;42.008;21.356;2023-09-19T01:08:27;15.68;;;10.25;;
82722;SDS011;72450;42.008;21.356;2023-09-19T01:11:28;15.07;;;10.05;;
82722;SDS011;72450;42.008;21.356;2023-09-19T01:24:42;16.52;;;9.40;;
82722;SDS011;72450;42.008;21.356;2023-09-19T01:27:53;13.68;;;9.40;;
82722;SDS011;72450;42.008;21.356;2023-09-19T01:30:14;13.90;;;9.65;;
82722;SDS011;72450;42.008;21.356;2023-09-19T01:32:43;11.82;;;8.63;;
82722;SDS011;72450;42.008;21.356;2023-09-19T01:35:11;11.77;;;9.20;;
82722;SDS011;72450;42.008;21.356;2023-09-19T01:40:07;12.60;;;9.43;;
82722;SDS011;72450;42.008;21.356;2023-09-19T01:48:32;16.55;;;8.88;;
82722;SDS011;72450;42.008;21.356;2023-09-19T01:51:02;14.20;;;9.52;;
82722;SDS011;72450;42.008;21.356;2023-09-19T01:53:45;14.27;;;8.80;;
82722;SDS011;72450;42.008;21.356;2023-09-19T01:56:21;11.63;;;9.32;;
82722;SDS011;72450;42.008;21.356;2023-09-19T01:58:48;13.05;;;8.95;;
82722;SDS011;72450;42.008;21.356;2023-09-19T02:01:19;12.98;;;8.77;;
82722;SDS011;72450;42.008;21.356;2023-09-19T02:03:46;13.73;;;8.95;;
82722;SDS011;72450;42.008;21.356;2023-09-19T02:06:16;13.32;;;9.18;;
82722;SDS011;72450;42.008;21.356;2023-09-19T02:08:44;14.98;;;9.02;;
82722;SDS011;72450;42.008;21.356;2023-09-19T02:11:10;16.42;;;9.13;;
82722;SDS011;72450;42.008;21.356;2023-09-19T02:13:38;13.48;;;8.38;;
82722;SDS011;72450;42.008;21.356;2023-09-19T02:16:04;12.75;;;9.75;;
82722;SDS011;72450;42.008;21.356;2023-09-19T02:21:00;17.30;;;9.48;;
82722;SDS011;72450;42.008;21.356;2023-09-19T02:23:26;11.40;;;9.35;;
82722;SDS011;72450;42.008;21.356;2023-09-19T02:25:58;12.65;;;9.00;;
82722;SDS011;72450;42.008;21.356;2023-09-19T02:28:30;13.55;;;9.30;;
82722;SDS011;72450;42.008;21.356;2023-09-19T02:30:57;14.50;;;9.80;;
82722;SDS011;72450;42.008;21.356;2023-09-19T02:33:23;14.95;;;8.73;;
82722;SDS011;72450;42.008;21.356;2023-09-19T02:35:49;12.30;;;9.82;;
82722;SDS011;72450;42.008;21.356;2023-09-19T02:38:15;14.00;;;10.35;;
82722;SDS011;72450;42.008;21.356;2023-09-19T02:40:46;15.65;;;10.45;;
82722;SDS011;72450;42.008;21.356;2023-09-19T02:43:12;15.07;;;10.23;;
82722;SDS011;72450;42.008;21.356;2023-09-19T02:45:38;18.35;;;11.00;;
82722;SDS011;72450;42.008;21.356;2023-09-19T02:48:04;14.77;;;10.07;;
82722;SDS011;72450;42.008;21.356;2023-09-19T02:50:32;13.80;;;10.05;;
82722;SDS011;72450;42.008;21.356;2023-09-19T02:52:59;13.60;;;9.10;;
82722;SDS011;72450;42.008;21.356;2023-09-19T02:55:25;18.55;;;10.02;;
82722;SDS011;72450;42.008;21.356;2023-09-19T02:57:52;12.43;;;8.68;;
82722;SDS011;72450;42.008;21.356;2023-09-19T03:00:22;12.63;;;8.93;;
82722;SDS011;72450;42.008;21.356;2023-09-19T03:02:49;14.18;;;9.95;;
82722;SDS011;72450;42.008;21.356;2023-09-19T03:05:15;13.77;;;9.98;;
82722;SDS011;72450;42.008;21.356;2023-09-19T03:07:42;14.15;;;10.05;;
82722;SDS011;72450;42.008;21.356;2023-09-19T03:10:08;16.95;;;10.02;;
82722;SDS011;72450;42.008;21.356;2023-09-19T03:12:34;18.90;;;10.10;;
82722;SDS011;72450;42.008;21.356;2023-09-19T03:15:01;16.45;;;10.40;;
82722;SDS011;72450;42.008;21.356;2023-09-19T03:17:27;16.35;;;9.52;;
82722;SDS011;72450;42.008;21.356;2023-09-19T03:19:53;14.15;;;9.25;;
82722;SDS011;72450;42.008;21.356;2023-09-19T03:22:20;15.27;;;9.07;;
82722;SDS011;72450;42.008;21.356;2023-09-19T03:24:46;15.38;;;10.05;;
82722;SDS011;72450;42.008;21.356;2023-09-19T03:27:12;13.13;;;9.60;;
82722;SDS011;72450;42.008;21.356;2023-09-19T03:29:42;13.23;;;9.48;;
82722;SDS011;72450;42.008;21.356;2023-09-19T03:32:08;14.48;;;10.05;;
82722;SDS011;72450;42.008;21.356;2023-09-19T03:34:37;12.50;;;9.77;;
82722;SDS011;72450;42.008;21.356;2023-09-19T03:37:11;12.52;;;9.18;;
82722;SDS011;72450;42.008;21.356;2023-09-19T03:39:37;12.05;;;9.43;;
82722;SDS011;72450;42.008;21.356;2023-09-19T03:42:04;15.30;;;9.43;;
82722;SDS011;72450;42.008;21.356;2023-09-19T03:44:32;14.60;;;9.05;;
82722;SDS011;72450;42.008;21.356;2023-09-19T03:46:58;16.20;;;10.80;;
82722;SDS011;72450;42.008;21.356;2023-09-19T03:49:24;15.38;;;9.65;;
82722;SDS011;72450;42.008;21.356;2023-09-19T03:51:50;13.27;;;9.25;;
82722;SDS011;72450;42.008;21.356;2023-09-19T03:54:16;11.70;;;9.27;;
82722;SDS011;72450;42.008;21.356;2023-09-19T03:56:44;14.27;;;9.02;;
82722;SDS011;72450;42.008;21.356;2023-09-19T03:59:10;13.75;;;9.65;;
82722;SDS011;72450;42.008;21.356;2023-09-19T04:01:37;17.85;;;10.07;;
82722;SDS011;72450;42.008;21.356;2023-09-19T04:04:04;18.42;;;10.35;;
82722;SDS011;72450;42.008;21.356;2023-09-19T04:06:36;14.75;;;9.27;;
82722;SDS011;72450;42.008;21.356;2023-09-19T04:09:03;16.88;;;10.55;;
82722;SDS011;72450;42.008;21.356;2023-09-19T04:11:32;17.00;;;10.15;;
82722;SDS011;72450;42.008;21.356;2023-09-19T04:13:58;13.68;;;9.98;;
82722;SDS011;72450;42.008;21.356;2023-09-19T04:16:25;14.63;;;10.27;;
82722;SDS011;72450;42.008;21.356;2023-09-19T04:18:51;15.57;;;9.25;;
82722;SDS011;72450;42.008;21.356;2023-09-19T04:21:17;14.68;;;10.10;;
82722;SDS011;72450;42.008;21.356;2023-09-19T04:23:44;15.15;;;10.32;;
82722;SDS011;72450;42.008;21.356;2023-09-19T04:26:10;16.10;;;9.55;;
82722;SDS011;72450;42.008;21.356;2023-09-19T04:28:37;14.27;;;10.85;;
82722;SDS011;72450;42.008;21.356;2023-09-19T04:31:04;15.68;;;9.82;;
82722;SDS011;72450;42.008;21.356;2023-09-19T04:33:30;14.20;;;10.90;;
82722;SDS011;72450;42.008;21.356;2023-09-19T04:35:56;17.98;;;10.88;;
82722;SDS011;72450;42.008;21.356;2023-09-19T04:38:22;12.43;;;9.90;;
82722;SDS011;72450;42.008;21.356;2023-09-19T04:40:49;12.30;;;9.07;;
82722;SDS011;72450;42.008;21.356;2023-09-19T04:43:15;13.70;;;10.85;;
82722;SDS011;72450;42.008;21.356;2023-09-19T04:45:42;13.98;;;9.57;;
82722;SDS011;72450;42.008;21.356;2023-09-19T04:48:08;12.20;;;10.10;;
82722;SDS011;72450;42.008;21.356;2023-09-19T04:50:34;16.50;;;10.75;;
82722;SDS011;72450;42.008;21.356;2023-09-19T04:53:02;13.85;;;10.00;;
82722;SDS011;72450;42.008;21.356;2023-09-19T04:55:28;14.27;;;9.75;;
82722;SDS011;72450;42.008;21.356;2023-09-19T04:57:55;12.63;;;9.45;;
82722;SDS011;72450;42.008;21.356;2023-09-19T05:00:21;15.30;;;9.63;;
82722;SDS011;72450;42.008;21.356;2023-09-19T05:02:53;13.75;;;9.93;;
82722;SDS011;72450;42.008;21.356;2023-09-19T05:05:21;16.60;;;10.77;;
82722;SDS011;72450;42.008;21.356;2023-09-19T05:07:48;14.15;;;10.35;;
82722;SDS011;72450;42.008;21.356;2023-09-19T05:10:16;19.02;;;11.80;;
82722;SDS011;72450;42.008;21.356;2023-09-19T05:12:43;14.07;;;10.35;;
82722;SDS011;72450;42.008;21.356;2023-09-19T05:15:13;17.70;;;11.48;;
82722;SDS011;72450;42.008;21.356;2023-09-19T05:17:49;17.42;;;10.77;;
82722;SDS011;72450;42.008;21.356;2023-09-19T05:20:16;16.63;;;10.45;;
82722;SDS011;72450;42.008;21.356;2023-09-19T05:22:49;13.80;;;10.02;;
82722;SDS011;72450;42.008;21.356;2023-09-19T05:25:16;17.80;;;10.68;;
82722;SDS011;72450;42.008;21.356;2023-09-19T05:27:43;17.83;;;10.60;;
82722;SDS011;72450;42.008;21.356;2023-09-19T05:30:09;19.50;;;11.32;;
82722;SDS011;72450;42.008;21.356;2023-09-19T05:32:35;19.23;;;10.30;;
82722;SDS011;72450;42.008;21.356;2023-09-19T05:35:01;18.45;;;10.93;;
82722;SDS011;72450;42.008;21.356;2023-09-19T05:37:28;20.67;;;11.10;;
82722;SDS011;72450;42.008;21.356;2023-09-19T05:39:54;16.30;;;10.38;;
82722;SDS011;72450;42.008;21.356;2023-09-19T05:42:21;18.13;;;11.38;;
82722;SDS011;72450;42.008;21.356;2023-09-19T05:44:47;24.10;;;12.27;;
82722;SDS011;72450;42.008;21.356;2023-09-19T05:47:13;15.63;;;11.23;;
82722;SDS011;72450;42.008;21.356;2023-09-19T05:49:39;19.52;;;11.80;;
82722;SDS011;72450;42.008;21.356;2023-09-19T05:56:59;17.60;;;10.88;;
82722;SDS011;72450;42.008;21.356;2023-09-19T05:59:25;17.20;;;11.80;;
82722;SDS011;72450;42.008;21.356;2023-09-19T06:01:51;18.20;;;11.90;;
82722;SDS011;72450;42.008;21.356;2023-09-19T06:04:17;18.35;;;11.65;;
82722;SDS011;72450;42.008;21.356;2023-09-19T06:11:36;18.15;;;10.70;;
82722;SDS011;72450;42.008;21.356;2023-09-19T06:14:02;16.80;;;13.00;;
82722;SDS011;72450;42.008;21.356;2023-09-19T06:16:29;16.13;;;12.75;;
82722;SDS011;72450;42.008;21.356;2023-09-19T06:18:55;16.30;;;11.52;;
82722;SDS011;72450;42.008;21.356;2023-09-19T06:21:22;20.52;;;12.15;;
82722;SDS011;72450;42.008;21.356;2023-09-19T06:23:48;13.68;;;10.27;;
82722;SDS011;72450;42.008;21.356;2023-09-19T06:26:14;16.60;;;11.68;;
82722;SDS011;72450;42.008;21.356;2023-09-19T06:28:40;17.42;;;11.27;;
82722;SDS011;72450;42.008;21.356;2023-09-19T06:31:07;16.80;;;11.75;;
82722;SDS011;72450;42.008;21.356;2023-09-19T06:33:38;17.55;;;10.45;;
82722;SDS011;72450;42.008;21.356;2023-09-19T06:36:07;12.02;;;9.25;;
82722;SDS011;72450;42.008;21.356;2023-09-19T06:38:34;14.70;;;9.50;;
82722;SDS011;72450;42.008;21.356;2023-09-19T06:41:01;14.52;;;10.43;;
82722;SDS011;72450;42.008;21.356;2023-09-19T06:43:30;14.98;;;10.57;;
82722;SDS011;72450;42.008;21.356;2023-09-19T06:45:56;16.95;;;10.65;;
82722;SDS011;72450;42.008;21.356;2023-09-19T06:48:22;14.15;;;10.57;;
82722;SDS011;72450;42.008;21.356;2023-09-19T06:50:55;15.98;;;10.10;;
82722;SDS011;72450;42.008;21.356;2023-09-19T06:53:21;14.02;;;9.35;;
82722;SDS011;72450;42.008;21.356;2023-09-19T06:55:50;17.38;;;10.73;;
82722;SDS011;72450;42.008;21.356;2023-09-19T06:58:17;14.35;;;9.63;;
82722;SDS011;72450;42.008;21.356;2023-09-19T07:00:44;15.90;;;10.07;;
82722;SDS011;72450;42.008;21.356;2023-09-19T07:03:10;15.00;;;10.65;;
82722;SDS011;72450;42.008;21.356;2023-09-19T07:05:39;12.15;;;9.30;;
82722;SDS011;72450;42.008;21.356;2023-09-19T07:08:08;13.60;;;9.63;;
82722;SDS011;72450;42.008;21.356;2023-09-19T07:10:37;15.32;;;10.38;;
82722;SDS011;72450;42.008;21.356;2023-09-19T07:13:06;18.15;;;11.35;;
82722;SDS011;72450;42.008;21.356;2023-09-19T07:15:35;21.60;;;12.00;;
82722;SDS011;72450;42.008;21.356;2023-09-19T07:18:04;23.90;;;13.10;;
82722;SDS011;72450;42.008;21.356;2023-09-19T07:20:30;24.45;;;14.25;;
82722;SDS011;72450;42.008;21.356;2023-09-19T07:23:00;32.47;;;15.38;;
82722;SDS011;72450;42.008;21.356;2023-09-19T07:25:29;20.73;;;11.15;;
82722;SDS011;72450;42.008;21.356;2023-09-19T07:27:56;16.30;;;10.63;;
82722;SDS011;72450;42.008;21.356;2023-09-19T07:30:25;15.52;;;9.63;;
82722;SDS011;72450;42.008;21.356;2023-09-19T07:32:51;13.65;;;9.52;;
82722;SDS011;72450;42.008;21.356;2023-09-19T07:35:17;14.15;;;9.10;;
82722;SDS011;72450;42.008;21.356;2023-09-19T07:37:45;25.25;;;10.52;;
82722;SDS011;72450;42.008;21.356;2023-09-19T07:40:15;15.30;;;9.48;;
82722;SDS011;72450;42.008;21.356;2023-09-19T07:42:41;18.00;;;10.20;;
82722;SDS011;72450;42.008;21.356;2023-09-19T07:45:11;15.10;;;10.23;;
82722;SDS011;72450;42.008;21.356;2023-09-19T07:47:40;13.75;;;8.60;;
82722;SDS011;72450;42.008;21.356;2023-09-19T07:50:06;16.58;;;8.45;;
82722;SDS011;72450;42.008;21.356;2023-09-19T07:52:32;14.65;;;9.30;;
82722;SDS011;72450;42.008;21.356;2023-09-19T07:54:58;15.13;;;8.90;;
82722;SDS011;72450;42.008;21.356;2023-09-19T07:57:26;13.85;;;7.78;;
82722;SDS011;72450;42.008;21.356;2023-09-19T07:59:54;21.25;;;17.17;;
82722;SDS011;72450;42.008;21.356;2023-09-19T08:02:20;15.82;;;9.88;;
82722;SDS011;72450;42.008;21.356;2023-09-19T08:04:47;16.05;;;9.40;;
82722;SDS011;72450;42.008;21.356;2023-09-19T08:07:15;17.02;;;9.45;;
82722;SDS011;72450;42.008;21.356;2023-09-19T08:09:41;14.20;;;9.40;;
82722;SDS011;72450;42.008;21.356;2023-09-19T08:12:11;12.93;;;9.02;;
82722;SDS011;72450;42.008;21.356;2023-09-19T08:14:37;12.07;;;9.30;;
82722;SDS011;72450;42.008;21.356;2023-09-19T08:17:06;14.60;;;9.43;;
82722;SDS011;72450;42.008;21.356;2023-09-19T08:19:33;16.05;;;9.00;;
82722;SDS011;72450;42.008;21.356;2023-09-19T08:21:59;17.00;;;10.52;;
82722;SDS011;72450;42.008;21.356;2023-09-19T08:24:26;17.67;;;9.88;;
82722;SDS011;72450;42.008;21.356;2023-09-19T08:26:53;19.13;;;10.38;;
82722;SDS011;72450;42.008;21.356;2023-09-19T08:29:20;21.70;;;11.95;;
82722;SDS011;72450;42.008;21.356;2023-09-19T08:31:46;14.85;;;9.98;;
82722;SDS011;72450;42.008;21.356;2023-09-19T08:34:16;19.55;;;10.38;;
82722;SDS011;72450;42.008;21.356;2023-09-19T08:36:43;18.17;;;9.48;;
82722;SDS011;72450;42.008;21.356;2023-09-19T08:39:10;13.95;;;9.10;;
82722;SDS011;72450;42.008;21.356;2023-09-19T08:41:36;9.13;;;7.22;;
82722;SDS011;72450;42.008;21.356;2023-09-19T08:44:02;14.00;;;9.05;;
82722;SDS011;72450;42.008;21.356;2023-09-19T08:46:30;11.90;;;8.00;;
82722;SDS011;72450;42.008;21.356;2023-09-19T08:49:41;20.38;;;9.23;;
82722;SDS011;72450;42.008;21.356;2023-09-19T08:51:47;16.60;;;9.30;;
82722;SDS011;72450;42.008;21.356;2023-09-19T08:54:21;17.15;;;8.95;;
82722;SDS011;72450;42.008;21.356;2023-09-19T08:56:48;11.75;;;8.57;;
82722;SDS011;72450;42.008;21.356;2023-09-19T08:59:16;12.70;;;7.97;;
82722;SDS011;72450;42.008;21.356;2023-09-19T09:01:43;12.85;;;8.50;;
82722;SDS011;72450;42.008;21.356;2023-09-19T09:04:11;12.73;;;9.02;;
82722;SDS011;72450;42.008;21.356;2023-09-19T09:06:38;13.98;;;8.98;;
82722;SDS011;72450;42.008;21.356;2023-09-19T09:09:05;14.57;;;8.52;;
82722;SDS011;72450;42.008;21.356;2023-09-19T09:11:32;12.52;;;8.77;;
82722;SDS011;72450;42.008;21.356;2023-09-19T09:13:59;12.45;;;8.90;;
82722;SDS011;72450;42.008;21.356;2023-09-19T09:16:25;17.10;;;8.00;;
82722;SDS011;72450;42.008;21.356;2023-09-19T09:18:51;15.63;;;8.13;;
82722;SDS011;72450;42.008;21.356;2023-09-19T09:21:19;14.00;;;9.60;;
82722;SDS011;72450;42.008;21.356;2023-09-19T09:23:46;14.85;;;9.07;;
82722;SDS011;72450;42.008;21.356;2023-09-19T09:26:12;18.42;;;9.00;;
82722;SDS011;72450;42.008;21.356;2023-09-19T09:28:45;14.27;;;8.50;;
82722;SDS011;72450;42.008;21.356;2023-09-19T09:31:23;11.57;;;8.95;;
82722;SDS011;72450;42.008;21.356;2023-09-19T09:33:55;10.35;;;8.25;;
82722;SDS011;72450;42.008;21.356;2023-09-19T09:36:35;12.50;;;8.00;;
82722;SDS011;72450;42.008;21.356;2023-09-19T09:39:01;13.02;;;8.32;;
82722;SDS011;72450;42.008;21.356;2023-09-19T09:44:13;13.18;;;8.93;;
82722;SDS011;72450;42.008;21.356;2023-09-19T09:46:46;14.05;;;9.07;;
82722;SDS011;72450;42.008;21.356;2023-09-19T09:49:33;12.18;;;7.90;;
82722;SDS011;72450;42.008;21.356;2023-09-19T09:52:01;16.50;;;10.02;;
82722;SDS011;72450;42.008;21.356;2023-09-19T09:54:30;13.48;;;8.65;;
82722;SDS011;72450;42.008;21.356;2023-09-19T10:02:25;18.85;;;9.77;;
82722;SDS011;72450;42.008;21.356;2023-09-19T10:04:54;16.40;;;9.27;;
82722;SDS011;72450;42.008;21.356;2023-09-19T10:07:39;18.05;;;9.63;;
82722;SDS011;72450;42.008;21.356;2023-09-19T10:10:08;13.27;;;8.55;;
82722;SDS011;72450;42.008;21.356;2023-09-19T10:12:46;13.95;;;9.30;;
82722;SDS011;72450;42.008;21.356;2023-09-19T10:15:16;15.85;;;9.88;;
82722;SDS011;72450;42.008;21.356;2023-09-19T10:17:45;15.02;;;9.52;;
82722;SDS011;72450;42.008;21.356;2023-09-19T10:20:15;11.75;;;8.10;;
82722;SDS011;72450;42.008;21.356;2023-09-19T10:23:07;13.25;;;8.77;;
82722;SDS011;72450;42.008;21.356;2023-09-19T10:25:46;13.70;;;9.05;;
82722;SDS011;72450;42.008;21.356;2023-09-19T10:28:13;14.55;;;8.40;;
82722;SDS011;72450;42.008;21.356;2023-09-19T10:30:43;16.08;;;9.15;;
82722;SDS011;72450;42.008;21.356;2023-09-19T10:33:14;11.98;;;8.70;;
82722;SDS011;72450;42.008;21.356;2023-09-19T10:35:44;14.93;;;9.48;;
82722;SDS011;72450;42.008;21.356;2023-09-19T10:38:11;15.15;;;9.38;;
82722;SDS011;72450;42.008;21.356;2023-09-19T10:40:38;13.48;;;8.90;;
82722;SDS011;72450;42.008;21.356;2023-09-19T10:43:17;18.83;;;8.90;;
82722;SDS011;72450;42.008;21.356;2023-09-19T10:45:44;15.80;;;8.98;;
82722;SDS011;72450;42.008;21.356;2023-09-19T10:48:14;11.93;;;8.38;;
82722;SDS011;72450;42.008;21.356;2023-09-19T10:53:16;11.00;;;8.85;;
82722;SDS011;72450;42.008;21.356;2023-09-19T10:55:56;17.92;;;9.07;;
82722;SDS011;72450;42.008;21.356;2023-09-19T10:58:28;16.25;;;9.23;;
82722;SDS011;72450;42.008;21.356;2023-09-19T11:00:55;11.40;;;8.35;;
82722;SDS011;72450;42.008;21.356;2023-09-19T11:03:22;11.75;;;8.50;;
82722;SDS011;72450;42.008;21.356;2023-09-19T11:06:07;12.38;;;8.23;;
82722;SDS011;72450;42.008;21.356;2023-09-19T11:15:04;14.05;;;8.75;;
82722;SDS011;72450;42.008;21.356;2023-09-19T11:22:23;9.00;;;8.10;;
82722;SDS011;72450;42.008;21.356;2023-09-19T11:24:51;11.00;;;8.32;;
82722;SDS011;72450;42.008;21.356;2023-09-19T11:27:21;10.88;;;8.25;;
82722;SDS011;72450;42.008;21.356;2023-09-19T11:29:47;10.98;;;8.30;;
82722;SDS011;72450;42.008;21.356;2023-09-19T11:32:14;9.40;;;8.13;;
82722;SDS011;72450;42.008;21.356;2023-09-19T11:34:42;10.82;;;8.45;;
82722;SDS011;72450;42.008;21.356;2023-09-19T11:39:37;13.82;;;9.10;;
82722;SDS011;72450;42.008;21.356;2023-09-19T11:44:48;13.57;;;9.15;;
82722;SDS011;72450;42.008;21.356;2023-09-19T11:47:17;11.27;;;8.23;;
82722;SDS011;72450;42.008;21.356;2023-09-19T11:49:44;10.25;;;8.05;;
82722;SDS011;72450;42.008;21.356;2023-09-19T11:52:10;10.65;;;8.57;;
82722;SDS011;72450;42.008;21.356;2023-09-19T11:54:39;10.45;;;7.90;;
82722;SDS011;72450;42.008;21.356;2023-09-19T11:57:06;10.80;;;8.10;;
82722;SDS011;72450;42.008;21.356;2023-09-19T11:59:33;11.05;;;8.52;;
82722;SDS011;72450;42.008;21.356;2023-09-19T12:02:03;9.00;;;8.10;;
82722;SDS011;72450;42.008;21.356;2023-09-19T12:04:43;11.10;;;8.75;;
82722;SDS011;72450;42.008;21.356;2023-09-19T12:07:13;11.20;;;8.38;;
82722;SDS011;72450;42.008;21.356;2023-09-19T12:09:48;9.02;;;6.78;;
82722;SDS011;72450;42.008;21.356;2023-09-19T12:12:24;12.38;;;8.35;;
82722;SDS011;72450;42.008;21.356;2023-09-19T12:14:53;9.80;;;8.52;;
82722;SDS011;72450;42.008;21.356;2023-09-19T12:17:20;12.35;;;8.00;;
82722;SDS011;72450;42.008;21.356;2023-09-19T12:19:56;12.38;;;8.52;;
82722;SDS011;72450;42.008;21.356;2023-09-19T12:22:22;11.82;;;7.90;;
82722;SDS011;72450;42.008;21.356;2023-09-19T12:24:50;11.15;;;8.57;;
82722;SDS011;72450;42.008;21.356;2023-09-19T12:27:19;11.32;;;8.63;;
82722;SDS011;72450;42.008;21.356;2023-09-19T12:29:47;10.25;;;8.13;;
82722;SDS011;72450;42.008;21.356;2023-09-19T12:32:33;9.10;;;8.20;;
82722;SDS011;72450;42.008;21.356;2023-09-19T12:35:00;11.77;;;8.32;;
82722;SDS011;72450;42.008;21.356;2023-09-19T12:37:32;13.82;;;9.02;;
82722;SDS011;72450;42.008;21.356;2023-09-19T12:40:05;15.32;;;8.68;;
82722;SDS011;72450;42.008;21.356;2023-09-19T12:42:42;9.27;;;8.32;;
82722;SDS011;72450;42.008;21.356;2023-09-19T12:45:09;10.65;;;8.38;;
82722;SDS011;72450;42.008;21.356;2023-09-19T12:47:38;12.98;;;8.20;;
82722;SDS011;72450;42.008;21.356;2023-09-19T12:50:12;13.70;;;8.15;;
82722;SDS011;72450;42.008;21.356;2023-09-19T12:52:51;12.85;;;7.35;;
82722;SDS011;72450;42.008;21.356;2023-09-19T12:55:24;17.35;;;14.20;;
82722;SDS011;72450;42.008;21.356;2023-09-19T12:58:11;11.88;;;7.75;;
82722;SDS011;72450;42.008;21.356;2023-09-19T13:00:40;10.68;;;8.52;;
82722;SDS011;72450;42.008;21.356;2023-09-19T13:03:14;13.02;;;7.70;;
82722;SDS011;72450;42.008;21.356;2023-09-19T13:05:50;10.13;;;8.05;;
82722;SDS011;72450;42.008;21.356;2023-09-19T13:08:21;8.75;;;7.63;;
82722;SDS011;72450;42.008;21.356;2023-09-19T13:13:46;9.68;;;7.18;;
82722;SDS011;72450;42.008;21.356;2023-09-19T13:16:20;10.25;;;8.10;;
82722;SDS011;72450;42.008;21.356;2023-09-19T13:18:55;8.15;;;7.07;;
82722;SDS011;72450;42.008;21.356;2023-09-19T13:21:31;9.55;;;6.70;;
82722;SDS011;72450;42.008;21.356;2023-09-19T13:24:18;9.48;;;7.22;;
82722;SDS011;72450;42.008;21.356;2023-09-19T13:26:44;8.18;;;6.63;;
82722;SDS011;72450;42.008;21.356;2023-09-19T13:29:11;10.95;;;7.72;;
82722;SDS011;72450;42.008;21.356;2023-09-19T13:31:38;10.40;;;7.18;;
82722;SDS011;72450;42.008;21.356;2023-09-19T13:34:06;9.57;;;6.95;;
82722;SDS011;72450;42.008;21.356;2023-09-19T13:36:32;8.82;;;6.85;;
82722;SDS011;72450;42.008;21.356;2023-09-19T13:38:59;8.43;;;6.15;;
82722;SDS011;72450;42.008;21.356;2023-09-19T13:41:25;7.53;;;6.22;;
82722;SDS011;72450;42.008;21.356;2023-09-19T13:43:51;8.98;;;6.35;;
82722;SDS011;72450;42.008;21.356;2023-09-19T13:46:18;8.88;;;6.55;;
82722;SDS011;72450;42.008;21.356;2023-09-19T13:48:50;9.57;;;6.60;;
82722;SDS011;72450;42.008;21.356;2023-09-19T13:51:19;12.30;;;6.97;;
82722;SDS011;72450;42.008;21.356;2023-09-19T13:53:48;9.90;;;6.82;;
82722;SDS011;72450;42.008;21.356;2023-09-19T13:56:15;9.43;;;7.28;;
82722;SDS011;72450;42.008;21.356;2023-09-19T13:58:41;11.07;;;7.03;;
82722;SDS011;72450;42.008;21.356;2023-09-19T14:01:08;8.20;;;6.72;;
82722;SDS011;72450;42.008;21.356;2023-09-19T14:03:41;9.98;;;6.90;;
82722;SDS011;72450;42.008;21.356;2023-09-19T14:06:21;9.35;;;6.95;;
82722;SDS011;72450;42.008;21.356;2023-09-19T14:08:47;11.15;;;7.22;;
82722;SDS011;72450;42.008;21.356;2023-09-19T14:11:14;9.90;;;6.93;;
82722;SDS011;72450;42.008;21.356;2023-09-19T14:13:41;12.45;;;7.00;;
82722;SDS011;72450;42.008;21.356;2023-09-19T14:16:12;9.27;;;6.43;;
82722;SDS011;72450;42.008;21.356;2023-09-19T14:18:38;9.05;;;6.88;;
82722;SDS011;72450;42.008;21.356;2023-09-19T14:21:05;11.30;;;6.88;;
82722;SDS011;72450;42.008;21.356;2023-09-19T14:23:35;13.38;;;6.95;;
82722;SDS011;72450;42.008;21.356;2023-09-19T14:26:01;11.18;;;6.97;;
82722;SDS011;72450;42.008;21.356;2023-09-19T14:30:55;8.13;;;6.50;;
82722;SDS011;72450;42.008;21.356;2023-09-19T14:33:21;8.80;;;6.47;;
82722;SDS011;72450;42.008;21.356;2023-09-19T14:35:47;13.02;;;6.97;;
82722;SDS011;72450;42.008;21.356;2023-09-19T14:40:39;11.60;;;6.75;;
82722;SDS011;72450;42.008;21.356;2023-09-19T14:45:35;13.10;;;7.43;;
82722;SDS011;72450;42.008;21.356;2023-09-19T14:48:01;8.30;;;7.18;;
82722;SDS011;72450;42.008;21.356;2023-09-19T14:50:30;10.98;;;7.40;;
82722;SDS011;72450;42.008;21.356;2023-09-19T14:55:23;8.75;;;6.28;;
82722;SDS011;72450;42.008;21.356;2023-09-19T14:57:49;9.13;;;6.60;;
82722;SDS011;72450;42.008;21.356;2023-09-19T15:00:16;8.68;;;7.53;;
82722;SDS011;72450;42.008;21.356;2023-09-19T15:02:45;10.32;;;6.50;;
82722;SDS011;72450;42.008;21.356;2023-09-19T15:05:13;8.30;;;7.28;;
82722;SDS011;72450;42.008;21.356;2023-09-19T15:07:40;9.38;;;6.72;;
82722;SDS011;72450;42.008;21.356;2023-09-19T15:10:06;10.18;;;7.25;;
82722;SDS011;72450;42.008;21.356;2023-09-19T15:12:34;10.55;;;6.90;;
82722;SDS011;72450;42.008;21.356;2023-09-19T15:15:03;11.80;;;7.18;;
82722;SDS011;72450;42.008;21.356;2023-09-19T15:17:30;9.57;;;7.05;;
82722;SDS011;72450;42.008;21.356;2023-09-19T15:19:59;15.50;;;8.20;;
82722;SDS011;72450;42.008;21.356;2023-09-19T15:22:27;9.90;;;6.80;;
82722;SDS011;72450;42.008;21.356;2023-09-19T15:27:20;11.18;;;7.15;;
82722;SDS011;72450;42.008;21.356;2023-09-19T15:29:46;8.68;;;6.45;;
82722;SDS011;72450;42.008;21.356;2023-09-19T15:32:12;8.23;;;6.82;;
82722;SDS011;72450;42.008;21.356;2023-09-19T15:34:38;10.27;;;7.28;;
82722;SDS011;72450;42.008;21.356;2023-09-19T15:37:04;11.30;;;7.07;;
82722;SDS011;72450;42.008;21.356;2023-09-19T15:39:30;10.32;;;7.32;;
82722;SDS011;72450;42.008;21.356;2023-09-19T15:42:01;9.75;;;7.38;;